createdAt,value
2018-12-03T00:01:32.782Z,65.70
2018-12-03T00:04:20.919Z,67.17
2018-12-03T00:06:50.458Z,65.93
2018-12-03T00:09:19.868Z,68.60
2018-12-03T00:11:48.721Z,63.43
2018-12-03T00:14:17.678Z,62.60
2018-12-03T00:16:46.584Z,62.07
2018-12-03T00:19:15.566Z,61.13
2018-12-03T00:21:44.428Z,60.47
2018-12-03T00:24:13.389Z,58.77
2018-12-03T00:26:42.238Z,109.27
2018-12-03T00:29:11.053Z,85.17
2018-12-03T00:31:39.952Z,75.30
2018-12-03T00:34:08.775Z,80.10
2018-12-03T00:36:37.674Z,82.50
2018-12-03T00:39:08.310Z,107.23
2018-12-03T00:41:37.349Z,95.90
2018-12-03T00:44:06.454Z,85.60
2018-12-03T00:46:35.271Z,75.40
2018-12-03T00:49:04.076Z,78.47
2018-12-03T00:51:32.971Z,59.27
2018-12-03T00:54:01.783Z,88.17
2018-12-03T00:56:30.578Z,154.07
2018-12-03T00:58:59.357Z,69.23
2018-12-03T01:01:32.235Z,147.83
2018-12-03T01:04:01.119Z,102.03
2018-12-03T01:06:29.975Z,99.17
2018-12-03T01:08:58.885Z,85.37
2018-12-03T01:11:27.652Z,128.83
2018-12-03T01:13:56.470Z,110.30
2018-12-03T01:16:25.332Z,125.57
2018-12-03T01:18:54.078Z,120.90
2018-12-03T01:21:22.872Z,105.03
2018-12-03T01:23:51.781Z,137.07
2018-12-03T01:26:20.623Z,139.10
2018-12-03T01:28:49.473Z,117.70
2018-12-03T01:31:18.424Z,139.20
2018-12-03T01:33:47.213Z,184.83
2018-12-03T01:36:16.002Z,164.77
2018-12-03T01:38:44.825Z,200.33
2018-12-03T01:41:13.707Z,245.07
2018-12-03T01:43:42.536Z,238.43
2018-12-03T01:46:11.441Z,229.67
2018-12-03T01:48:40.226Z,193.87
2018-12-03T01:51:09.139Z,161.03
2018-12-03T01:53:37.883Z,178.77
2018-12-03T01:56:06.743Z,219.83
2018-12-03T01:58:35.641Z,220.90
2018-12-03T02:01:04.425Z,155.17
2018-12-03T02:03:33.233Z,147.30
2018-12-03T02:06:02.100Z,127.90
2018-12-03T02:08:30.927Z,134.07
2018-12-03T02:10:59.761Z,123.30
2018-12-03T02:13:28.591Z,145.80
2018-12-03T02:15:57.387Z,136.23
2018-12-03T02:18:26.285Z,152.83
2018-12-03T02:20:55.114Z,133.97
2018-12-03T02:23:23.972Z,136.83
2018-12-03T02:25:52.783Z,148.83
2018-12-03T02:28:21.596Z,133.07
2018-12-03T02:30:50.442Z,143.47
2018-12-03T02:33:19.424Z,137.47
2018-12-03T02:35:48.243Z,145.37
2018-12-03T02:38:17.114Z,136.73
2018-12-03T02:40:46.004Z,143.07
2018-12-03T02:43:14.817Z,126.00
2018-12-03T02:45:43.614Z,131.73
2018-12-03T02:48:12.404Z,150.63
2018-12-03T02:50:41.224Z,147.43
2018-12-03T02:53:10.060Z,159.93
2018-12-03T02:55:38.973Z,141.87
2018-12-03T02:58:07.864Z,154.80
2018-12-03T03:00:40.147Z,142.30
2018-12-03T03:03:08.956Z,149.83
2018-12-03T03:05:37.760Z,163.60
2018-12-03T03:08:07.046Z,196.73
2018-12-03T03:10:35.881Z,219.70
2018-12-03T03:13:04.759Z,210.63
2018-12-03T03:15:33.567Z,196.20
2018-12-03T03:18:02.415Z,194.70
2018-12-03T03:20:31.332Z,207.53
2018-12-03T03:23:00.143Z,200.57
2018-12-03T03:25:28.933Z,197.93
2018-12-03T03:27:57.747Z,209.83
2018-12-03T03:30:26.595Z,216.23
2018-12-03T03:32:55.395Z,213.80
2018-12-03T03:35:24.310Z,214.47
2018-12-03T03:37:53.125Z,221.20
2018-12-03T03:40:21.946Z,207.63
2018-12-03T03:42:50.816Z,185.87
2018-12-03T03:45:22.868Z,182.20
2018-12-03T03:47:51.790Z,314.10
2018-12-03T03:50:20.661Z,223.67
2018-12-03T03:52:49.922Z,157.80
2018-12-03T03:55:18.777Z,143.57
2018-12-03T03:57:47.748Z,145.27
2018-12-03T04:00:17.102Z,142.30
2018-12-03T04:02:46.012Z,137.37
2018-12-03T04:05:15.793Z,141.57
2018-12-03T04:07:46.428Z,139.20
2018-12-03T04:10:16.031Z,134.57
2018-12-03T04:12:45.892Z,129.53
2018-12-03T04:15:15.705Z,129.23
2018-12-03T04:17:44.997Z,129.57
2018-12-03T04:20:15.006Z,129.87
2018-12-03T04:22:44.798Z,138.00
2018-12-03T04:25:13.939Z,136.63
2018-12-03T04:27:42.741Z,162.77
2018-12-03T04:30:16.576Z,184.67
2018-12-03T04:32:45.378Z,252.37
2018-12-03T04:35:14.679Z,195.60
2018-12-03T04:37:44.247Z,182.17
2018-12-03T04:40:15.363Z,176.50
2018-12-03T04:42:44.234Z,160.90
2018-12-03T04:45:15.197Z,140.73
2018-12-03T04:47:44.039Z,140.70
2018-12-03T04:50:14.200Z,140.00
2018-12-03T04:52:43.029Z,140.33
2018-12-03T04:55:12.245Z,144.67
2018-12-03T04:57:41.088Z,147.50
2018-12-03T05:00:14.893Z,147.80
2018-12-03T05:02:44.237Z,150.33
2018-12-03T05:05:13.068Z,147.13
2018-12-03T05:07:42.023Z,146.57
2018-12-03T05:10:16.790Z,144.70
2018-12-03T05:12:46.792Z,147.90
2018-12-03T05:15:15.764Z,140.20
2018-12-03T05:17:45.110Z,140.93
2018-12-03T05:20:17.279Z,152.60
2018-12-03T05:22:46.093Z,147.87
2018-12-03T05:25:19.152Z,146.53
2018-12-03T05:27:43.732Z,145.03
2018-12-03T05:30:14.003Z,147.10
2018-12-03T05:32:43.434Z,140.37
2018-12-03T05:35:14.630Z,149.17
2018-12-03T05:37:43.439Z,150.97
2018-12-03T05:40:17.526Z,149.67
2018-12-03T05:42:46.482Z,150.63
2018-12-03T05:45:15.396Z,149.33
2018-12-03T05:47:44.239Z,139.27
2018-12-03T05:50:15.352Z,143.13
2018-12-03T05:52:45.184Z,138.97
2018-12-03T05:55:14.475Z,141.63
2018-12-03T05:57:43.730Z,152.10
2018-12-03T06:00:16.912Z,142.83
2018-12-03T06:02:45.716Z,145.70
2018-12-03T06:05:15.232Z,145.70
2018-12-03T06:07:44.084Z,141.40
2018-12-03T06:10:15.428Z,142.87
2018-12-03T06:12:44.329Z,134.37
2018-12-03T06:15:14.151Z,146.00
2018-12-03T06:17:42.989Z,141.40
2018-12-03T06:20:14.012Z,138.57
2018-12-03T06:22:43.307Z,129.73
2018-12-03T06:25:17.463Z,132.93
2018-12-03T06:27:46.360Z,136.70
2018-12-03T06:30:20.962Z,123.43
2018-12-03T06:32:49.926Z,127.70
2018-12-03T06:35:19.127Z,136.87
2018-12-03T06:37:48.283Z,132.03
2018-12-03T06:40:27.105Z,137.37
2018-12-03T06:42:55.894Z,133.90
2018-12-03T06:45:25.388Z,137.53
2018-12-03T06:47:57.081Z,135.57
2018-12-03T06:50:25.936Z,130.47
2018-12-03T06:52:54.840Z,144.63
2018-12-03T06:55:24.345Z,151.20
2018-12-03T06:57:53.164Z,140.70
2018-12-03T07:00:23.212Z,148.53
2018-12-03T07:02:52.198Z,142.70
2018-12-03T07:05:21.005Z,142.37
2018-12-03T07:07:51.278Z,148.13
2018-12-03T07:10:21.154Z,142.97
2018-12-03T07:12:54.163Z,142.37
2018-12-03T07:15:23.376Z,138.20
2018-12-03T07:17:58.189Z,139.47
2018-12-03T07:20:27.875Z,129.60
2018-12-03T07:22:57.711Z,136.20
2018-12-03T07:25:26.532Z,136.57
2018-12-03T07:27:55.311Z,132.97
2018-12-03T07:30:25.605Z,137.97
2018-12-03T07:32:55.132Z,140.33
2018-12-03T07:35:26.136Z,131.63
2018-12-03T07:37:56.779Z,131.90
2018-12-03T07:40:26.334Z,125.50
2018-12-03T07:42:55.645Z,121.40
2018-12-03T07:45:30.266Z,120.77
2018-12-03T07:47:59.257Z,127.27
2018-12-03T07:50:28.484Z,132.57
2018-12-03T07:52:59.158Z,125.57
2018-12-03T07:55:28.019Z,126.33
2018-12-03T07:57:59.562Z,128.93
2018-12-03T08:00:37.126Z,119.53
2018-12-03T08:03:07.047Z,139.47
2018-12-03T08:05:36.573Z,132.10
2018-12-03T08:08:05.746Z,125.10
2018-12-03T08:10:34.818Z,132.53
2018-12-03T08:13:03.640Z,133.13
2018-12-03T08:15:32.503Z,128.50
2018-12-03T08:18:03.807Z,134.10
2018-12-03T08:20:39.235Z,133.67
2018-12-03T08:23:14.820Z,135.13
2018-12-03T08:25:43.621Z,128.50
2018-12-03T08:28:12.624Z,128.40
2018-12-03T08:30:41.531Z,136.60
2018-12-03T08:33:10.321Z,124.90
2018-12-03T08:35:39.197Z,127.53
2018-12-03T08:38:08.054Z,128.43
2018-12-03T08:40:36.905Z,124.97
2018-12-03T08:43:05.919Z,136.97
2018-12-03T08:45:34.797Z,125.00
2018-12-03T08:48:03.657Z,128.87
2018-12-03T08:50:32.511Z,130.90
2018-12-03T08:53:01.357Z,129.30
2018-12-03T08:55:30.229Z,128.53
2018-12-03T08:57:59.089Z,128.97
2018-12-03T09:00:29.385Z,135.63
2018-12-03T09:03:06.062Z,134.10
2018-12-03T09:05:36.973Z,129.50
2018-12-03T09:08:07.212Z,138.03
2018-12-03T09:10:36.136Z,137.57
2018-12-03T09:13:14.308Z,135.50
2018-12-03T09:15:43.372Z,135.67
2018-12-03T09:18:12.176Z,128.97
2018-12-03T09:20:41.026Z,108.60
2018-12-03T09:23:09.879Z,127.23
2018-12-03T09:25:38.771Z,127.23
2018-12-03T09:28:07.953Z,122.90
2018-12-03T09:30:36.713Z,124.37
2018-12-03T09:33:05.767Z,126.50
2018-12-03T09:35:34.623Z,125.70
2018-12-03T09:38:03.399Z,121.50
2018-12-03T09:40:32.285Z,124.17
2018-12-03T09:43:01.119Z,113.50
2018-12-03T09:45:30.729Z,112.47
2018-12-03T09:47:59.522Z,123.53
2018-12-03T09:50:29.210Z,122.07
2018-12-03T09:52:58.262Z,119.93
2018-12-03T09:55:30.624Z,119.47
2018-12-03T09:58:08.431Z,132.23
2018-12-03T10:00:37.462Z,150.60
2018-12-03T10:03:09.458Z,155.23
2018-12-03T10:05:40.865Z,161.83
2018-12-03T10:08:09.650Z,151.93
2018-12-03T10:10:38.435Z,155.53
2018-12-03T10:13:08.900Z,157.27
2018-12-03T10:15:37.660Z,154.37
2018-12-03T10:18:06.695Z,162.67
2018-12-03T10:20:35.505Z,162.47
2018-12-03T10:23:04.340Z,157.70
2018-12-03T10:25:33.161Z,157.37
2018-12-03T10:28:04.812Z,163.03
2018-12-03T10:30:33.634Z,160.83
2018-12-03T10:33:02.508Z,160.57
2018-12-03T10:35:35.906Z,171.17
2018-12-03T10:38:14.216Z,166.70
2018-12-03T10:40:46.325Z,160.77
2018-12-03T10:43:15.189Z,161.03
2018-12-03T10:45:44.012Z,162.73
2018-12-03T10:48:12.808Z,173.03
2018-12-03T10:50:42.066Z,165.43
2018-12-03T10:53:10.941Z,166.43
2018-12-03T10:55:42.788Z,163.47
2018-12-03T10:58:14.826Z,165.07
2018-12-03T11:00:49.122Z,158.73
2018-12-03T11:03:23.304Z,160.13
2018-12-03T11:05:57.516Z,168.60
2018-12-03T11:08:26.923Z,168.30
2018-12-03T11:10:56.644Z,171.17
2018-12-03T11:13:25.511Z,165.47
2018-12-03T11:15:54.341Z,164.87
2018-12-03T11:18:23.247Z,166.13
2018-12-03T11:20:52.074Z,153.43
2018-12-03T11:23:24.319Z,157.43
2018-12-03T11:25:53.429Z,155.47
2018-12-03T11:28:22.388Z,152.90
2018-12-03T11:30:54.805Z,156.07
2018-12-03T11:33:25.298Z,161.83
2018-12-03T11:35:56.111Z,156.50
2018-12-03T11:38:30.579Z,173.07
2018-12-03T11:40:59.494Z,177.20
2018-12-03T11:43:29.703Z,181.83
2018-12-03T11:45:59.153Z,171.23
2018-12-03T11:48:28.059Z,177.07
2018-12-03T11:50:56.954Z,170.10
2018-12-03T11:53:25.795Z,175.47
2018-12-03T11:55:54.717Z,171.80
2018-12-03T11:58:23.525Z,180.63
2018-12-03T12:00:52.611Z,182.43
2018-12-03T12:03:21.500Z,180.00
2018-12-03T12:05:50.361Z,176.00
2018-12-03T12:08:20.348Z,188.63
2018-12-03T12:10:48.177Z,184.47
2018-12-03T12:13:16.992Z,194.20
2018-12-03T12:15:45.778Z,197.63
2018-12-03T12:18:15.300Z,197.50
2018-12-03T12:20:44.136Z,199.03
2018-12-03T12:23:12.962Z,198.43
2018-12-03T12:25:41.718Z,205.73
2018-12-03T12:28:10.501Z,202.87
2018-12-03T12:30:39.385Z,215.77
2018-12-03T12:33:08.299Z,205.63
2018-12-03T12:35:37.143Z,218.80
2018-12-03T12:38:06.832Z,224.07
2018-12-03T12:40:35.674Z,220.17
2018-12-03T12:43:04.659Z,225.97
2018-12-03T12:45:41.083Z,228.77
2018-12-03T12:48:10.271Z,236.83
2018-12-03T12:50:39.101Z,235.83
2018-12-03T12:53:07.985Z,225.77
2018-12-03T12:55:36.807Z,235.00
2018-12-03T12:58:06.232Z,235.87
2018-12-03T13:00:35.147Z,224.43
2018-12-03T13:03:04.073Z,220.17
2018-12-03T13:05:33.516Z,213.67
2018-12-03T13:08:02.462Z,215.60
2018-12-03T13:10:31.332Z,214.17
2018-12-03T13:13:00.123Z,211.17
2018-12-03T13:15:28.994Z,210.03
2018-12-03T13:17:57.828Z,203.73
2018-12-03T13:20:26.664Z,201.67
2018-12-03T13:22:55.428Z,201.77
2018-12-03T13:25:24.298Z,210.93
2018-12-03T13:27:54.275Z,201.80
2018-12-03T13:30:23.114Z,205.67
2018-12-03T13:32:51.973Z,191.03
2018-12-03T13:35:20.790Z,196.33
2018-12-03T13:37:50.048Z,203.00
2018-12-03T13:40:18.903Z,203.77
2018-12-03T13:42:48.169Z,201.23
2018-12-03T13:45:20.203Z,203.80
2018-12-03T13:47:49.583Z,194.30
2018-12-03T13:50:18.584Z,201.37
2018-12-03T13:52:47.447Z,206.17
2018-12-03T13:55:17.784Z,190.83
2018-12-03T13:57:47.166Z,195.10
2018-12-03T14:00:19.765Z,186.67
2018-12-03T14:02:52.465Z,191.07
2018-12-03T14:06:30.373Z,193.43
2018-12-03T14:10:04.321Z,188.67
2018-12-03T14:12:36.159Z,187.57
2018-12-03T14:15:15.831Z,192.17
2018-12-03T14:17:49.985Z,187.13
2018-12-03T14:20:20.023Z,182.63
2018-12-03T14:22:52.029Z,184.60
2018-12-03T14:25:20.835Z,188.93
2018-12-03T14:27:50.428Z,180.80
2018-12-03T14:30:19.270Z,184.53
2018-12-03T14:32:48.116Z,175.03
2018-12-03T14:35:16.932Z,183.17
2018-12-03T14:37:45.947Z,184.33
2018-12-03T14:40:14.737Z,174.23
2018-12-03T14:42:43.603Z,180.70
2018-12-03T14:45:13.793Z,183.27
2018-12-03T14:47:42.545Z,176.80
2018-12-03T14:50:11.747Z,168.07
2018-12-03T14:52:40.439Z,185.93
2018-12-03T14:55:09.930Z,177.20
2018-12-03T14:57:38.647Z,183.70
2018-12-03T15:00:13.286Z,182.57
2018-12-03T15:02:42.076Z,174.73
2018-12-03T15:05:10.900Z,192.87
2018-12-03T15:07:39.691Z,183.20
2018-12-03T15:10:10.120Z,185.47
2018-12-03T15:12:38.959Z,182.17
2018-12-03T15:15:10.446Z,187.17
2018-12-03T15:17:40.791Z,189.23
2018-12-03T15:20:10.057Z,184.10
2018-12-03T15:22:38.967Z,183.87
2018-12-03T15:25:10.432Z,194.57
2018-12-03T15:27:39.210Z,189.17
2018-12-03T15:30:11.200Z,179.90
2018-12-03T15:32:39.936Z,200.83
2018-12-03T15:35:10.293Z,195.13
2018-12-03T15:37:39.112Z,186.17
2018-12-03T15:40:16.440Z,179.50
2018-12-03T15:42:45.203Z,180.47
2018-12-03T15:45:15.996Z,192.73
2018-12-03T15:47:45.302Z,180.57
2018-12-03T15:50:14.533Z,187.13
2018-12-03T15:52:43.362Z,189.47
2018-12-03T15:55:12.133Z,188.77
2018-12-03T15:57:40.931Z,193.53
2018-12-03T16:00:11.862Z,192.93
2018-12-03T16:02:41.165Z,196.03
2018-12-03T16:05:26.421Z,188.17
2018-12-03T16:07:55.223Z,186.33
2018-12-03T16:10:24.044Z,192.80
2018-12-03T16:12:53.662Z,201.83
2018-12-03T16:15:22.437Z,201.87
2018-12-03T16:17:51.282Z,201.20
2018-12-03T16:20:20.074Z,191.60
2018-12-03T16:22:48.816Z,191.97
2018-12-03T16:25:17.648Z,188.60
2018-12-03T16:27:46.369Z,202.10
2018-12-03T16:30:18.327Z,186.90
2018-12-03T16:32:47.827Z,196.60
2018-12-03T16:35:16.742Z,200.20
2018-12-03T16:37:45.624Z,194.10
2018-12-03T16:40:15.040Z,192.50
2018-12-03T16:42:43.851Z,213.20
2018-12-03T16:45:13.129Z,209.30
2018-12-03T16:47:41.943Z,213.53
2018-12-03T16:50:11.040Z,201.33
2018-12-03T16:52:40.153Z,209.33
2018-12-03T16:55:09.564Z,198.37
2018-12-03T16:57:38.373Z,187.77
2018-12-03T17:00:16.473Z,193.10
2018-12-03T17:02:45.246Z,214.03
2018-12-03T17:05:14.602Z,199.57
2018-12-03T17:07:43.889Z,205.97
2018-12-03T17:10:15.794Z,197.50
2018-12-03T17:12:44.690Z,199.50
2018-12-03T17:15:13.979Z,193.80
2018-12-03T17:17:42.851Z,200.60
2018-12-03T17:20:32.829Z,202.83
2018-12-03T17:23:22.007Z,200.17
2018-12-03T17:25:51.138Z,186.10
2018-12-03T17:28:19.888Z,193.57
2018-12-03T17:30:48.725Z,205.50
2018-12-03T17:33:17.528Z,184.13
2018-12-03T17:35:46.298Z,183.87
2018-12-03T17:38:15.150Z,202.07
2018-12-03T17:40:44.213Z,188.50
2018-12-03T17:43:13.033Z,187.60
2018-12-03T17:45:42.077Z,192.20
2018-12-03T17:48:10.892Z,189.30
2018-12-03T17:50:39.897Z,186.90
2018-12-03T17:53:08.681Z,184.20
2018-12-03T17:55:37.518Z,197.47
2018-12-03T17:58:06.324Z,190.23
2018-12-03T18:00:35.138Z,180.23
2018-12-03T18:03:03.892Z,171.13
2018-12-03T18:05:32.715Z,178.07
2018-12-03T18:08:01.528Z,175.90
2018-12-03T18:10:30.926Z,179.90
2018-12-03T18:12:59.771Z,181.70
2018-12-03T18:15:28.545Z,197.30
2018-12-03T18:17:57.387Z,174.43
2018-12-03T18:20:26.959Z,176.30
2018-12-03T18:22:55.718Z,177.47
2018-12-03T18:25:24.529Z,175.90
2018-12-03T18:27:53.304Z,169.57
2018-12-03T18:30:22.065Z,173.23
2018-12-03T18:32:50.787Z,183.17
2018-12-03T18:35:19.612Z,168.20
2018-12-03T18:37:48.365Z,164.67
2018-12-03T18:40:17.118Z,161.73
2018-12-03T18:42:46.168Z,163.03
2018-12-03T18:45:15.003Z,175.37
2018-12-03T18:47:43.854Z,176.20
2018-12-03T18:50:22.591Z,163.23
2018-12-03T18:52:51.670Z,159.67
2018-12-03T18:55:20.462Z,165.43
2018-12-03T18:57:53.151Z,186.30
2018-12-03T19:00:22.043Z,152.83
2018-12-03T19:02:50.894Z,173.93
2018-12-03T19:05:19.755Z,149.83
2018-12-03T19:07:48.574Z,169.90
2018-12-03T19:10:17.337Z,166.27
2018-12-03T19:12:46.205Z,147.53
2018-12-03T19:15:14.956Z,173.90
2018-12-03T19:17:43.768Z,178.47
2018-12-03T19:20:13.084Z,149.00
2018-12-03T19:22:41.869Z,144.83
2018-12-03T19:25:11.029Z,156.53
2018-12-03T19:27:39.787Z,145.03
2018-12-03T19:30:13.726Z,177.20
2018-12-03T19:32:42.719Z,145.43
2018-12-03T19:35:11.593Z,168.30
2018-12-03T19:37:40.422Z,161.63
2018-12-03T19:40:09.280Z,162.10
2018-12-03T19:42:38.042Z,146.67
2018-12-03T19:45:08.150Z,146.67
2018-12-03T19:47:36.925Z,146.33
2018-12-03T19:50:07.318Z,146.87
2018-12-03T19:52:36.450Z,144.20
2018-12-03T19:55:07.280Z,146.67
2018-12-03T19:57:36.651Z,147.97
2018-12-03T20:00:15.963Z,162.10
2018-12-03T20:02:45.291Z,148.70
2018-12-03T20:05:17.765Z,150.17
2018-12-03T20:07:46.672Z,137.67
2018-12-03T20:10:15.714Z,148.73
2018-12-03T20:12:44.532Z,144.00
2018-12-03T20:15:13.706Z,145.20
2018-12-03T20:17:43.660Z,135.77
2018-12-03T20:20:16.436Z,144.63
2018-12-03T20:22:57.430Z,139.23
2018-12-03T20:25:33.749Z,146.43
2018-12-03T20:28:08.134Z,141.47
2018-12-03T20:30:48.698Z,132.70
2018-12-03T20:33:21.046Z,132.50
2018-12-03T20:36:02.868Z,141.20
2018-12-03T20:38:44.926Z,136.67
2018-12-03T20:41:22.494Z,132.30
2018-12-03T20:43:52.896Z,132.93
2018-12-03T20:46:34.634Z,137.57
2018-12-03T20:49:20.946Z,138.87
2018-12-03T20:51:51.254Z,149.37
2018-12-03T20:54:20.038Z,142.87
2018-12-03T20:56:48.817Z,138.03
2018-12-03T20:59:18.431Z,138.90
2018-12-03T21:01:48.311Z,138.47
2018-12-03T21:04:21.169Z,135.93
2018-12-03T21:06:50.176Z,134.07
2018-12-03T21:09:18.990Z,132.53
2018-12-03T21:11:47.819Z,130.23
2018-12-03T21:14:20.127Z,122.90
2018-12-03T21:16:47.490Z,127.40
2018-12-03T21:19:16.281Z,136.40
2018-12-03T21:21:45.090Z,135.73
2018-12-03T21:24:13.827Z,133.70
2018-12-03T21:26:43.021Z,130.43
2018-12-03T21:29:11.742Z,128.63
2018-12-03T21:31:40.517Z,141.90
2018-12-03T21:34:09.256Z,142.93
2018-12-03T21:36:38.029Z,139.27
2018-12-03T21:39:08.399Z,137.43
2018-12-03T21:41:37.162Z,128.93
2018-12-03T21:44:05.991Z,127.37
2018-12-03T21:46:34.719Z,132.03
2018-12-03T21:49:03.604Z,130.97
2018-12-03T21:51:32.358Z,139.37
2018-12-03T21:54:01.299Z,135.70
2018-12-03T21:56:30.138Z,126.33
2018-12-03T21:58:58.917Z,127.63
2018-12-03T22:01:27.725Z,124.87
2018-12-03T22:03:56.452Z,122.00
2018-12-03T22:06:25.262Z,126.17
2018-12-03T22:08:54.162Z,120.50
2018-12-03T22:11:22.970Z,121.30
2018-12-03T22:13:51.739Z,128.90
2018-12-03T22:16:20.592Z,132.90
2018-12-03T22:18:49.422Z,130.43
2018-12-03T22:21:18.173Z,129.03
2018-12-03T22:23:46.916Z,130.20
2018-12-03T22:26:15.735Z,128.33
2018-12-03T22:28:44.472Z,126.57
2018-12-03T22:31:13.212Z,131.87
2018-12-03T22:33:42.003Z,129.03
2018-12-03T22:36:10.815Z,120.93
2018-12-03T22:38:39.563Z,125.97
2018-12-03T22:41:08.390Z,122.37
2018-12-03T22:43:37.166Z,117.80
2018-12-03T22:46:05.970Z,119.93
2018-12-03T22:48:34.753Z,120.70
2018-12-03T22:51:03.499Z,135.67
2018-12-03T22:53:32.360Z,131.40
2018-12-03T22:56:01.121Z,117.87
2018-12-03T22:58:29.901Z,124.27
2018-12-03T23:01:05.076Z,120.17
2018-12-03T23:03:34.327Z,141.80
2018-12-03T23:06:03.681Z,120.50
2018-12-03T23:08:32.472Z,119.97
2018-12-03T23:11:01.214Z,124.73
2018-12-03T23:13:30.000Z,121.93
2018-12-03T23:15:58.769Z,118.83
2018-12-03T23:18:27.542Z,114.93
2018-12-03T23:20:56.299Z,121.50
2018-12-03T23:23:25.048Z,118.30
2018-12-03T23:25:53.791Z,116.30
2018-12-03T23:28:22.505Z,113.97
2018-12-03T23:30:51.267Z,124.63
2018-12-03T23:33:20.646Z,110.57
2018-12-03T23:35:49.495Z,109.23
2018-12-03T23:38:18.281Z,119.37
2018-12-03T23:40:47.212Z,110.70
2018-12-03T23:43:15.995Z,110.80
2018-12-03T23:45:44.790Z,108.40
2018-12-03T23:48:13.512Z,109.00
2018-12-03T23:50:42.234Z,110.73
2018-12-03T23:53:11.025Z,106.30
2018-12-03T23:55:39.796Z,115.23
2018-12-03T23:58:08.556Z,108.03
